createdAt,value
2018-06-02T00:01:32.243Z,63.54
2018-06-02T00:03:59.905Z,64.20
2018-06-02T00:06:27.501Z,64.99
2018-06-02T00:08:55.927Z,65.56
2018-06-02T00:11:23.635Z,66.20
2018-06-02T00:13:51.213Z,66.48
2018-06-02T00:16:18.936Z,66.05
2018-06-02T00:18:46.517Z,65.93
2018-06-02T00:21:14.095Z,66.46
2018-06-02T00:23:42.532Z,65.94
2018-06-02T00:26:10.109Z,67.35
2018-06-02T00:28:37.692Z,67.54
2018-06-02T00:31:05.424Z,67.96
2018-06-02T00:33:33.016Z,67.91
2018-06-02T00:36:00.661Z,67.84
2018-06-02T00:38:28.389Z,67.87
2018-06-02T00:40:55.963Z,67.75
2018-06-02T00:43:23.634Z,68.00
2018-06-02T00:45:51.275Z,68.66
2018-06-02T00:48:18.851Z,68.67
2018-06-02T00:50:46.437Z,67.95
2018-06-02T00:53:14.792Z,67.89
2018-06-02T00:55:42.452Z,67.80
2018-06-02T00:58:10.104Z,67.81
2018-06-02T01:00:37.758Z,67.58
2018-06-02T01:03:05.372Z,68.49
2018-06-02T01:05:32.964Z,68.00
2018-06-02T01:08:00.760Z,68.23
2018-06-02T01:10:28.372Z,68.78
2018-06-02T01:12:56.001Z,68.73
2018-06-02T01:15:23.639Z,68.47
2018-06-02T01:17:51.218Z,68.61
2018-06-02T01:20:18.874Z,68.56
2018-06-02T01:22:46.644Z,68.45
2018-06-02T01:25:14.232Z,68.22
2018-06-02T01:27:41.829Z,68.06
2018-06-02T01:30:09.445Z,68.01
2018-06-02T01:32:37.044Z,68.20
2018-06-02T01:35:04.640Z,68.03
2018-06-02T01:37:32.287Z,68.27
2018-06-02T01:39:59.951Z,68.22
2018-06-02T01:42:27.550Z,67.63
2018-06-02T01:44:55.721Z,67.90
2018-06-02T01:47:23.396Z,67.65
2018-06-02T01:49:51.039Z,67.62
2018-06-02T01:52:18.773Z,67.75
2018-06-02T01:54:46.361Z,67.71
2018-06-02T01:57:14.019Z,67.47
2018-06-02T01:59:41.655Z,67.08
2018-06-02T02:02:09.228Z,67.18
2018-06-02T02:04:36.809Z,66.92
2018-06-02T02:07:04.599Z,66.94
2018-06-02T02:09:32.179Z,67.18
2018-06-02T02:11:59.767Z,67.40
2018-06-02T02:14:27.393Z,67.33
2018-06-02T02:16:54.977Z,66.43
2018-06-02T02:19:22.627Z,66.44
2018-06-02T02:21:50.264Z,65.98
2018-06-02T02:24:17.848Z,67.57
2018-06-02T02:26:45.483Z,67.71
2018-06-02T02:29:13.212Z,66.79
2018-06-02T02:31:40.799Z,65.77
2018-06-02T02:34:08.363Z,65.32
2018-06-02T02:36:36.055Z,64.07
2018-06-02T02:39:03.736Z,63.01
2018-06-02T02:41:31.328Z,62.99
2018-06-02T02:43:59.045Z,63.85
2018-06-02T02:46:26.856Z,64.97
2018-06-02T02:48:54.443Z,64.98
2018-06-02T02:51:22.084Z,65.49
2018-06-02T02:53:49.720Z,66.01
2018-06-02T02:56:17.307Z,65.41
2018-06-02T02:58:45.036Z,65.73
2018-06-02T03:01:12.626Z,65.18
2018-06-02T03:03:40.230Z,64.22
2018-06-02T03:06:07.945Z,63.51
2018-06-02T03:08:35.519Z,62.40
2018-06-02T03:11:03.091Z,62.09
2018-06-02T03:13:30.729Z,62.05
2018-06-02T03:15:58.315Z,60.29
2018-06-02T03:18:25.930Z,61.52
2018-06-02T03:20:53.643Z,61.03
2018-06-02T03:23:21.217Z,61.07
2018-06-02T03:25:48.860Z,60.68
2018-06-02T03:28:16.475Z,60.24
2018-06-02T03:30:44.113Z,60.78
2018-06-02T03:33:11.692Z,61.17
2018-06-02T03:35:39.345Z,61.80
2018-06-02T03:38:06.919Z,61.56
2018-06-02T03:40:34.508Z,61.71
2018-06-02T03:43:02.221Z,61.86
2018-06-02T03:45:29.848Z,62.83
2018-06-02T03:47:57.447Z,63.32
2018-06-02T03:50:25.088Z,61.93
2018-06-02T03:52:52.668Z,62.40
2018-06-02T03:55:20.247Z,63.46
2018-06-02T03:57:47.979Z,63.39
2018-06-02T04:00:15.590Z,63.80
2018-06-02T04:02:43.245Z,64.21
2018-06-02T04:05:11.003Z,64.27
2018-06-02T04:07:38.660Z,63.79
2018-06-02T04:10:06.318Z,63.71
2018-06-02T04:12:34.046Z,64.93
2018-06-02T04:15:01.631Z,65.10
2018-06-02T04:17:29.993Z,63.66
2018-06-02T04:19:57.700Z,61.68
2018-06-02T04:22:25.340Z,61.08
2018-06-02T04:24:52.945Z,60.91
2018-06-02T04:27:20.666Z,59.39
2018-06-02T04:29:48.316Z,57.63
2018-06-02T04:32:15.969Z,57.14
2018-06-02T04:34:43.657Z,58.64
2018-06-02T04:37:11.220Z,59.42
2018-06-02T04:39:38.806Z,58.73
2018-06-02T04:42:06.452Z,60.40
2018-06-02T04:44:34.104Z,59.48
2018-06-02T04:47:01.733Z,59.77
2018-06-02T04:49:29.453Z,59.74
2018-06-02T04:51:57.093Z,57.79
2018-06-02T04:54:24.736Z,54.76
2018-06-02T04:56:52.458Z,53.51
2018-06-02T04:59:20.028Z,54.93
2018-06-02T05:01:47.627Z,54.46
2018-06-02T05:04:15.259Z,53.65
2018-06-02T05:06:42.919Z,51.40
2018-06-02T05:09:10.574Z,55.82
2018-06-02T05:11:38.350Z,53.80
2018-06-02T05:14:06.011Z,53.97
2018-06-02T05:16:33.595Z,51.93
2018-06-02T05:19:01.214Z,49.86
2018-06-02T05:21:28.795Z,49.16
2018-06-02T05:23:56.365Z,48.18
2018-06-02T05:26:24.069Z,47.39
2018-06-02T05:28:51.664Z,49.04
2018-06-02T05:31:19.314Z,48.66
2018-06-02T05:33:47.025Z,50.38
2018-06-02T05:36:15.232Z,47.92
2018-06-02T05:38:42.875Z,48.59
2018-06-02T05:41:10.584Z,50.92
2018-06-02T05:43:38.204Z,48.74
2018-06-02T05:46:05.864Z,51.17
2018-06-02T05:48:33.544Z,46.87
2018-06-02T05:51:01.165Z,44.14
2018-06-02T05:53:28.765Z,48.53
2018-06-02T05:55:56.511Z,47.93
2018-06-02T05:58:24.149Z,51.99
2018-06-02T06:00:51.741Z,51.11
2018-06-02T06:03:20.286Z,52.87
2018-06-02T06:05:47.928Z,48.77
2018-06-02T06:08:15.503Z,49.71
2018-06-02T06:10:43.277Z,49.58
2018-06-02T06:13:10.884Z,47.78
2018-06-02T06:15:38.541Z,47.49
2018-06-02T06:18:06.349Z,49.85
2018-06-02T06:20:34.036Z,45.87
2018-06-02T06:23:01.628Z,48.97
2018-06-02T06:25:29.276Z,48.07
2018-06-02T06:27:56.953Z,47.66
2018-06-02T06:30:24.533Z,44.46
2018-06-02T06:32:52.221Z,48.37
2018-06-02T06:35:19.860Z,44.08
2018-06-02T06:37:47.527Z,46.52
2018-06-02T06:40:15.236Z,44.70
2018-06-02T06:42:42.826Z,50.43
2018-06-02T06:45:10.443Z,47.60
2018-06-02T06:47:38.115Z,43.74
2018-06-02T06:50:05.715Z,46.68
2018-06-02T06:52:33.380Z,45.82
2018-06-02T06:55:01.105Z,44.71
2018-06-02T06:57:28.695Z,43.63
2018-06-02T06:59:56.294Z,41.58
2018-06-02T07:02:23.994Z,42.43
2018-06-02T07:04:51.625Z,41.65
2018-06-02T07:07:19.233Z,38.49
2018-06-02T07:09:46.987Z,39.13
2018-06-02T07:12:15.543Z,41.56
2018-06-02T07:14:43.159Z,40.32
2018-06-02T07:17:10.862Z,37.48
2018-06-02T07:19:38.508Z,38.81
2018-06-02T07:22:06.111Z,37.55
2018-06-02T07:24:33.739Z,39.58
2018-06-02T07:27:01.319Z,37.93
2018-06-02T07:29:28.960Z,39.10
2018-06-02T07:31:56.587Z,40.90
2018-06-02T07:34:24.228Z,37.64
2018-06-02T07:36:52.372Z,43.09
2018-06-02T07:39:21.283Z,40.31
2018-06-02T07:41:48.965Z,39.51
2018-06-02T07:44:16.594Z,40.62
2018-06-02T07:46:44.339Z,40.43
2018-06-02T07:49:11.947Z,42.17
2018-06-02T07:51:39.553Z,41.64
2018-06-02T07:54:07.273Z,41.47
2018-06-02T07:56:34.856Z,37.38
2018-06-02T07:59:02.437Z,37.93
2018-06-02T08:01:30.168Z,41.24
2018-06-02T08:03:57.774Z,43.77
2018-06-02T08:06:25.441Z,41.99
2018-06-02T08:08:53.103Z,42.14
2018-06-02T08:11:20.687Z,38.77
2018-06-02T08:13:48.265Z,40.45
2018-06-02T08:16:16.013Z,40.37
2018-06-02T08:18:43.593Z,42.18
2018-06-02T08:21:11.264Z,41.75
2018-06-02T08:23:39.000Z,40.85
2018-06-02T08:26:06.660Z,40.42
2018-06-02T08:28:34.305Z,40.51
2018-06-02T08:31:01.953Z,41.32
2018-06-02T08:33:29.621Z,38.63
2018-06-02T08:35:57.232Z,38.70
2018-06-02T08:38:24.937Z,37.00
2018-06-02T08:40:52.524Z,36.39
2018-06-02T08:43:20.169Z,36.41
2018-06-02T08:45:47.867Z,38.08
2018-06-02T08:48:16.281Z,37.78
2018-06-02T08:50:43.867Z,37.47
2018-06-02T08:53:11.580Z,34.82
2018-06-02T08:55:39.263Z,35.30
2018-06-02T08:58:06.908Z,37.15
2018-06-02T09:00:34.533Z,36.95
2018-06-02T09:03:02.115Z,33.80
2018-06-02T09:05:29.787Z,34.93
2018-06-02T09:07:57.556Z,34.25
2018-06-02T09:10:25.220Z,35.48
2018-06-02T09:12:52.874Z,35.38
2018-06-02T09:15:20.565Z,34.51
2018-06-02T09:17:48.156Z,35.98
2018-06-02T09:20:15.824Z,32.62
2018-06-02T09:22:43.782Z,32.90
2018-06-02T09:25:11.395Z,34.57
2018-06-02T09:27:38.992Z,35.04
2018-06-02T09:30:06.659Z,35.45
2018-06-02T09:32:34.260Z,34.23
2018-06-02T09:35:01.953Z,34.06
2018-06-02T09:37:29.698Z,36.70
2018-06-02T09:39:57.276Z,36.36
2018-06-02T09:42:24.860Z,35.48
2018-06-02T09:44:52.606Z,35.00
2018-06-02T09:47:20.266Z,33.91
2018-06-02T09:49:47.913Z,33.79
2018-06-02T09:52:15.614Z,32.90
2018-06-02T09:54:43.249Z,34.61
2018-06-02T09:57:10.900Z,33.29
2018-06-02T09:59:38.685Z,30.49
2018-06-02T10:02:06.358Z,31.91
2018-06-02T10:04:33.998Z,31.55
2018-06-02T10:07:01.891Z,30.36
2018-06-02T10:09:29.587Z,30.82
2018-06-02T10:11:57.167Z,30.07
2018-06-02T10:14:24.879Z,26.56
2018-06-02T10:16:52.530Z,30.57
2018-06-02T10:19:20.169Z,28.80
2018-06-02T10:21:47.808Z,30.34
2018-06-02T10:24:15.377Z,30.00
2018-06-02T10:26:42.971Z,28.94
2018-06-02T10:29:10.593Z,27.36
2018-06-02T10:31:39.137Z,29.14
2018-06-02T10:34:06.808Z,28.78
2018-06-02T10:36:34.451Z,30.00
2018-06-02T10:39:02.077Z,28.91
2018-06-02T10:41:29.671Z,28.39
2018-06-02T10:43:57.309Z,26.88
2018-06-02T10:46:24.968Z,29.58
2018-06-02T10:48:52.621Z,31.49
2018-06-02T10:51:20.397Z,30.60
2018-06-02T10:53:48.029Z,32.01
2018-06-02T10:56:15.710Z,31.29
2018-06-02T10:58:43.428Z,30.79
2018-06-02T11:01:11.019Z,29.86
2018-06-02T11:03:39.334Z,30.34
2018-06-02T11:06:07.004Z,28.84
2018-06-02T11:08:34.653Z,30.12
2018-06-02T11:11:02.303Z,30.68
2018-06-02T11:13:29.993Z,31.39
2018-06-02T11:15:57.658Z,29.00
2018-06-02T11:18:25.237Z,29.30
2018-06-02T11:20:52.952Z,30.73
2018-06-02T11:23:20.565Z,32.79
2018-06-02T11:25:48.215Z,31.99
2018-06-02T11:28:16.009Z,33.39
2018-06-02T11:30:43.606Z,31.56
2018-06-02T11:33:11.258Z,32.81
2018-06-02T11:35:38.985Z,31.55
2018-06-02T11:38:06.664Z,31.82
2018-06-02T11:40:34.238Z,32.53
2018-06-02T11:43:01.943Z,34.00
2018-06-02T11:45:29.675Z,33.67
2018-06-02T11:47:57.287Z,32.70
2018-06-02T11:50:24.996Z,32.27
2018-06-02T11:52:52.732Z,32.07
2018-06-02T11:55:20.468Z,31.91
2018-06-02T11:57:48.104Z,30.67
2018-06-02T12:00:15.801Z,31.43
2018-06-02T12:02:43.451Z,31.55
2018-06-02T12:05:11.108Z,31.64
2018-06-02T12:07:38.693Z,30.36
2018-06-02T12:10:06.389Z,31.09
2018-06-02T12:12:34.076Z,31.10
2018-06-02T12:15:01.721Z,31.26
2018-06-02T12:17:29.322Z,32.91
2018-06-02T12:19:57.042Z,31.19
2018-06-02T12:22:24.619Z,31.98
2018-06-02T12:24:52.265Z,31.28
2018-06-02T12:27:19.969Z,32.16
2018-06-02T12:29:47.559Z,32.42
2018-06-02T12:32:15.139Z,33.56
2018-06-02T12:34:42.896Z,33.20
2018-06-02T12:37:10.583Z,33.66
2018-06-02T12:39:38.165Z,33.98
2018-06-02T12:42:05.927Z,34.96
2018-06-02T12:44:33.581Z,33.12
2018-06-02T12:47:01.187Z,33.21
2018-06-02T12:49:28.844Z,33.44
2018-06-02T12:51:56.441Z,32.61
2018-06-02T12:54:24.116Z,32.35
2018-06-02T12:56:51.757Z,32.74
2018-06-02T12:59:20.369Z,33.08
2018-06-02T13:01:47.980Z,32.93
2018-06-02T13:04:15.617Z,32.72
2018-06-02T13:06:43.308Z,33.23
2018-06-02T13:09:10.888Z,32.86
2018-06-02T13:11:38.606Z,31.28
2018-06-02T13:14:06.250Z,31.60
2018-06-02T13:16:33.812Z,33.49
2018-06-02T13:19:01.509Z,33.79
2018-06-02T13:21:29.092Z,34.75
2018-06-02T13:23:56.716Z,34.87
2018-06-02T13:26:24.505Z,35.31
2018-06-02T13:28:52.140Z,34.60
2018-06-02T13:31:19.699Z,33.70
2018-06-02T13:33:47.435Z,34.32
2018-06-02T13:36:15.006Z,34.92
2018-06-02T13:38:42.576Z,33.32
2018-06-02T13:41:10.317Z,33.82
2018-06-02T13:43:37.888Z,34.85
2018-06-02T13:46:05.479Z,33.92
2018-06-02T13:48:33.112Z,33.39
2018-06-02T13:51:00.745Z,36.46
2018-06-02T13:53:28.334Z,37.04
2018-06-02T13:55:56.112Z,36.17
2018-06-02T13:58:23.764Z,35.29
2018-06-02T14:00:53.376Z,36.26
2018-06-02T14:03:21.035Z,35.01
2018-06-02T14:05:48.617Z,34.72
2018-06-02T14:08:16.186Z,34.80
2018-06-02T14:10:43.920Z,36.33
2018-06-02T14:13:11.490Z,35.31
2018-06-02T14:15:39.059Z,35.73
2018-06-02T14:18:07.513Z,36.30
2018-06-02T14:20:35.075Z,35.55
2018-06-02T14:23:02.697Z,36.99
2018-06-02T14:25:30.438Z,35.55
2018-06-02T14:27:58.084Z,36.53
2018-06-02T14:30:25.661Z,35.57
2018-06-02T14:32:53.431Z,35.98
2018-06-02T14:35:21.020Z,35.74
2018-06-02T14:37:48.596Z,34.89
2018-06-02T14:40:16.224Z,35.25
2018-06-02T14:42:43.854Z,35.52
2018-06-02T14:45:12.372Z,35.02
2018-06-02T14:47:40.096Z,35.22
2018-06-02T14:50:07.731Z,35.55
2018-06-02T14:52:36.255Z,35.49
2018-06-02T14:55:04.094Z,34.60
2018-06-02T14:57:31.666Z,35.83
2018-06-02T14:59:59.312Z,36.43
2018-06-02T15:02:27.023Z,35.59
2018-06-02T15:04:54.692Z,34.98
2018-06-02T15:07:22.748Z,36.05
2018-06-02T15:09:50.475Z,35.19
2018-06-02T15:12:18.108Z,34.70
2018-06-02T15:14:45.687Z,34.90
2018-06-02T15:17:13.303Z,34.74
2018-06-02T15:19:40.879Z,34.70
2018-06-02T15:22:08.536Z,35.70
2018-06-02T15:24:36.261Z,35.64
2018-06-02T15:27:03.827Z,35.80
2018-06-02T15:29:31.396Z,35.82
2018-06-02T15:31:59.120Z,36.11
2018-06-02T15:34:26.690Z,36.13
2018-06-02T15:36:54.261Z,35.74
2018-06-02T15:39:22.032Z,35.42
2018-06-02T15:41:49.630Z,35.69
2018-06-02T15:44:17.268Z,35.77
2018-06-02T15:46:45.443Z,36.65
2018-06-02T15:49:13.010Z,36.06
2018-06-02T15:51:40.583Z,35.78
2018-06-02T15:54:08.915Z,35.67
2018-06-02T15:56:37.281Z,36.40
2018-06-02T15:59:04.921Z,36.55
2018-06-02T16:01:32.695Z,37.03
2018-06-02T16:04:00.302Z,37.66
2018-06-02T16:06:27.889Z,37.57
2018-06-02T16:08:55.603Z,37.09
2018-06-02T16:11:23.241Z,37.09
2018-06-02T16:13:50.831Z,36.48
2018-06-02T16:16:18.563Z,37.22
2018-06-02T16:18:46.212Z,36.13
2018-06-02T16:21:13.808Z,36.44
2018-06-02T16:23:41.512Z,36.55
2018-06-02T16:26:09.101Z,37.14
2018-06-02T16:28:36.733Z,36.96
2018-06-02T16:31:04.391Z,36.97
2018-06-02T16:33:32.860Z,37.46
2018-06-02T16:36:00.428Z,37.85
2018-06-02T16:38:28.220Z,39.03
2018-06-02T16:40:55.812Z,38.23
2018-06-02T16:43:23.415Z,37.53
2018-06-02T16:45:51.071Z,37.16
2018-06-02T16:48:18.710Z,37.13
2018-06-02T16:50:46.413Z,38.59
2018-06-02T16:53:14.088Z,37.36
2018-06-02T16:55:41.741Z,38.41
2018-06-02T16:58:09.425Z,37.87
2018-06-02T17:00:37.121Z,38.09
2018-06-02T17:03:04.768Z,38.70
2018-06-02T17:05:32.354Z,38.25
2018-06-02T17:08:00.145Z,38.93
2018-06-02T17:10:27.795Z,38.81
2018-06-02T17:12:55.449Z,38.46
2018-06-02T17:15:23.174Z,39.13
2018-06-02T17:17:50.829Z,39.47
2018-06-02T17:20:18.391Z,39.11
2018-06-02T17:22:46.032Z,39.45
2018-06-02T17:25:13.665Z,39.86
2018-06-02T17:27:41.290Z,39.60
2018-06-02T17:30:08.932Z,40.18
2018-06-02T17:32:36.503Z,40.96
2018-06-02T17:35:04.161Z,40.74
2018-06-02T17:37:31.857Z,41.50
2018-06-02T17:39:59.501Z,41.16
2018-06-02T17:42:27.070Z,42.16
2018-06-02T17:44:54.760Z,41.49
2018-06-02T17:47:22.336Z,40.98
2018-06-02T17:49:49.908Z,41.20
2018-06-02T17:52:17.525Z,40.86
2018-06-02T17:54:45.186Z,40.48
2018-06-02T17:57:12.779Z,40.65
2018-06-02T17:59:40.496Z,40.73
2018-06-02T18:02:08.128Z,40.93
2018-06-02T18:04:35.809Z,41.14
2018-06-02T18:07:03.565Z,41.82
2018-06-02T18:09:31.289Z,41.55
2018-06-02T18:11:58.924Z,41.83
2018-06-02T18:14:26.536Z,41.90
2018-06-02T18:16:54.123Z,41.32
2018-06-02T18:19:21.712Z,41.45
2018-06-02T18:21:49.328Z,42.80
2018-06-02T18:24:16.891Z,42.30
2018-06-02T18:26:44.520Z,42.72
2018-06-02T18:29:12.156Z,43.19
2018-06-02T18:31:39.798Z,42.76
2018-06-02T18:34:07.428Z,42.77
2018-06-02T18:36:35.151Z,42.34
2018-06-02T18:39:02.838Z,43.38
2018-06-02T18:41:31.311Z,43.41
2018-06-02T18:43:58.934Z,43.88
2018-06-02T18:46:26.499Z,43.81
2018-06-02T18:48:54.076Z,43.38
2018-06-02T18:51:21.764Z,43.80
2018-06-02T18:53:49.344Z,43.89
2018-06-02T18:56:16.992Z,44.26
2018-06-02T18:58:44.691Z,44.60
2018-06-02T19:01:12.268Z,43.93
2018-06-02T19:03:40.696Z,44.01
2018-06-02T19:06:08.457Z,44.72
2018-06-02T19:08:36.088Z,44.63
2018-06-02T19:11:03.692Z,44.85
2018-06-02T19:13:31.461Z,44.68
2018-06-02T19:15:59.049Z,44.51
2018-06-02T19:18:27.267Z,45.03
2018-06-02T19:20:55.066Z,45.02
2018-06-02T19:23:22.700Z,45.59
2018-06-02T19:25:50.333Z,45.72
2018-06-02T19:28:18.038Z,45.93
2018-06-02T19:30:45.616Z,45.21
2018-06-02T19:33:13.204Z,45.34
2018-06-02T19:35:40.929Z,45.81
2018-06-02T19:38:08.507Z,45.51
2018-06-02T19:40:36.094Z,46.71
2018-06-02T19:43:03.799Z,46.20
2018-06-02T19:45:31.708Z,46.38
2018-06-02T19:47:59.279Z,46.12
2018-06-02T19:50:27.600Z,46.22
2018-06-02T19:52:55.176Z,47.04
2018-06-02T19:55:22.939Z,46.26
2018-06-02T19:57:50.622Z,46.88
2018-06-02T20:00:18.222Z,46.24
2018-06-02T20:02:45.784Z,46.79
2018-06-02T20:05:13.508Z,47.27
2018-06-02T20:07:41.105Z,47.17
2018-06-02T20:10:08.789Z,46.79
2018-06-02T20:12:37.370Z,47.38
2018-06-02T20:15:04.959Z,47.44
2018-06-02T20:17:32.527Z,48.02
2018-06-02T20:20:00.244Z,47.98
2018-06-02T20:22:27.831Z,48.66
2018-06-02T20:24:55.417Z,48.75
2018-06-02T20:27:23.130Z,49.29
2018-06-02T20:29:51.504Z,48.51
2018-06-02T20:32:19.092Z,49.37
2018-06-02T20:34:46.710Z,49.54
2018-06-02T20:37:14.295Z,48.87
2018-06-02T20:39:41.938Z,49.40
2018-06-02T20:42:09.649Z,49.48
2018-06-02T20:44:37.225Z,49.21
2018-06-02T20:47:04.944Z,49.59
2018-06-02T20:49:32.720Z,49.69
2018-06-02T20:52:00.320Z,49.93
2018-06-02T20:54:27.915Z,50.47
2018-06-02T20:57:30.739Z,51.10
2018-06-02T20:59:59.717Z,51.10
2018-06-02T21:02:28.720Z,51.61
2018-06-02T21:04:57.718Z,51.51
2018-06-02T21:07:26.736Z,51.66
2018-06-02T21:09:56.701Z,52.03
2018-06-02T21:12:25.920Z,51.47
2018-06-02T21:14:55.232Z,51.88
2018-06-02T21:17:24.199Z,52.08
2018-06-02T21:19:53.853Z,51.91
2018-06-02T21:22:22.751Z,51.40
2018-06-02T21:24:51.737Z,51.06
2018-06-02T21:27:20.840Z,52.22
2018-06-02T21:29:49.754Z,50.46
2018-06-02T21:32:18.740Z,50.29
2018-06-02T21:34:47.680Z,49.93
2018-06-02T21:37:17.132Z,50.45
2018-06-02T21:39:46.496Z,50.36
2018-06-02T21:42:15.532Z,50.26
2018-06-02T21:44:45.932Z,49.94
2018-06-02T21:47:14.839Z,49.68
2018-06-02T21:49:43.960Z,49.51
2018-06-02T21:52:12.863Z,48.93
2018-06-02T21:54:46.181Z,48.79
2018-06-02T21:57:15.078Z,50.29
2018-06-02T21:59:44.051Z,48.47
2018-06-02T22:02:13.068Z,48.77
2018-06-02T22:04:42.252Z,49.41
2018-06-02T22:07:11.192Z,48.89
2018-06-02T22:09:40.383Z,48.97
2018-06-02T22:12:09.381Z,49.68
2018-06-02T22:14:38.501Z,49.89
2018-06-02T22:17:07.717Z,48.47
2018-06-02T22:19:37.398Z,48.01
2018-06-02T22:22:06.344Z,49.85
2018-06-02T22:24:35.481Z,49.35
2018-06-02T22:27:04.464Z,49.18
2018-06-02T22:29:33.375Z,48.56
2018-06-02T22:32:02.475Z,49.27
2018-06-02T22:34:31.416Z,49.89
2018-06-02T22:37:00.330Z,48.60
2018-06-02T22:39:29.289Z,49.11
2018-06-02T22:41:58.224Z,48.72
2018-06-02T22:44:27.147Z,48.48
2018-06-02T22:46:56.310Z,49.88
2018-06-02T22:49:25.306Z,48.50
2018-06-02T22:51:59.880Z,48.27
2018-06-02T22:54:28.999Z,47.49
2018-06-02T22:56:58.244Z,48.25
2018-06-02T22:59:28.049Z,48.19
2018-06-02T23:01:57.443Z,48.00
2018-06-02T23:04:26.468Z,48.86
2018-06-02T23:06:55.765Z,48.00
2018-06-02T23:09:24.756Z,50.02
2018-06-02T23:11:53.709Z,48.41
2018-06-02T23:14:23.390Z,48.72
2018-06-02T23:16:52.890Z,47.65
2018-06-02T23:19:21.887Z,49.39
2018-06-02T23:21:50.979Z,48.80
2018-06-02T23:24:19.916Z,49.96
2018-06-02T23:26:48.814Z,49.28
2018-06-02T23:29:17.912Z,49.33
2018-06-02T23:31:46.891Z,49.47
2018-06-02T23:34:15.845Z,50.07
2018-06-02T23:36:44.931Z,50.65
2018-06-02T23:39:13.859Z,49.63
2018-06-02T23:41:43.436Z,49.95
2018-06-02T23:44:12.427Z,50.00
2018-06-02T23:46:41.353Z,49.33
2018-06-02T23:49:10.379Z,50.50
2018-06-02T23:51:39.553Z,52.70
2018-06-02T23:54:09.096Z,50.18
2018-06-02T23:56:38.087Z,51.08
2018-06-02T23:59:07.237Z,51.85
